Погода Сан Готардона неделю

Минас-Жерайс, Бразилия

18 - 24 июля
  • 18июля
    Сегодня
    +13°
    +26°
    Облачно с прояснениями
    ВремяПогодаТемператураВлажностьДавлениеВетер, м/сВероятность осадков
    00:00Практически безоблачно+17°C58 %689 мм1.6 м/с5 %
    03:00Облачно с прояснениями+17°C58 %689 мм2.1 м/с5 %
    06:00Облачно с прояснениями+15°C64 %689 мм2.1 м/с5 %
    09:00Небольшая облачность+18°C51 %691 мм2.0 м/с5 %
    12:00Небольшая облачность+23°C36 %691 мм2.2 м/с5 %
    15:00Облачно с прояснениями+25°C33 %690 мм2.4 м/с5 %
    18:00Ясно и безоблачно+21°C46 %689 мм2.3 м/с5 %
    21:00Практически безоблачно+20°C49 %690 мм1.8 м/с5 %
  • 19июля
    Пятница
    +13°
    +26°
    Ясно и безоблачно
    ВремяПогодаТемператураВлажностьДавлениеВетер, м/сВероятность осадков
    00:00Ясно и безоблачно+17°C57 %690 мм2.0 м/с5 %
    03:00Ясно и безоблачно+15°C61 %689 мм3.0 м/с5 %
    06:00Ясно и безоблачно+14°C65 %689 мм2.1 м/с5 %
    09:00Ясно и безоблачно+18°C52 %692 мм2.2 м/с5 %
    12:00Ясно и безоблачно+23°C37 %692 мм2.8 м/с5 %
    15:00Ясно и безоблачно+25°C33 %691 мм2.1 м/с5 %
    18:00Ясно и безоблачно+22°C49 %691 мм2.5 м/с5 %
    21:00Ясно и безоблачно+19°C57 %690 мм2.0 м/с5 %
  • 20июля
    Суббота
    +12°
    +26°
    Ясно и безоблачно
    ВремяПогодаТемператураВлажностьДавлениеВетер, м/сВероятность осадков
    00:00Ясно и безоблачно+17°C59 %690 мм2.3 м/с5 %
    03:00Ясно и безоблачно+16°C64 %690 мм1.6 м/с5 %
    06:00Ясно и безоблачно+14°C71 %689 мм1.4 м/с5 %
    09:00Ясно и безоблачно+18°C55 %691 мм2.0 м/с5 %
    12:00Ясно и безоблачно+23°C40 %691 мм2.1 м/с5 %
    15:00Ясно и безоблачно+26°C32 %690 мм2.6 м/с5 %
    18:00Ясно и безоблачно+22°C48 %690 мм2.3 м/с5 %
    21:00Ясно и безоблачно+19°C58 %689 мм1.1 м/с5 %
  • 21июля
    Воскресенье
    +12°
    +25°
    Ясно и безоблачно
    ВремяПогодаТемператураВлажностьДавлениеВетер, м/сВероятность осадков
    00:00Ясно и безоблачно+17°C63 %689 мм2.7 м/с5 %
    03:00Ясно и безоблачно+14°C72 %688 мм2.2 м/с5 %
    06:00Ясно и безоблачно+12°C79 %688 мм2.0 м/с5 %
    09:00Ясно и безоблачно+17°C62 %691 мм2.4 м/с5 %
    12:00Ясно и безоблачно+22°C43 %691 мм2.8 м/с5 %
    15:00Ясно и безоблачно+25°C37 %690 мм2.5 м/с5 %
    18:00Ясно и безоблачно+21°C52 %689 мм2.0 м/с5 %
    21:00Ясно и безоблачно+18°C61 %690 мм1.3 м/с5 %
  • 22июля
    Понедельник
    +13°
    +26°
    Ясно и безоблачно
    ВремяПогодаТемператураВлажностьДавлениеВетер, м/сВероятность осадков
    00:00Ясно и безоблачно+17°C60 %690 мм2.7 м/с5 %
    03:00Ясно и безоблачно+15°C69 %689 мм1.7 м/с5 %
    06:00Ясно и безоблачно+13°C84 %689 мм2.1 м/с5 %
    09:00Ясно и безоблачно+18°C67 %692 мм2.0 м/с5 %
    12:00Ясно и безоблачно+23°C46 %692 мм2.1 м/с5 %
    15:00Ясно и безоблачно+25°C41 %690 мм2.4 м/с5 %
    18:00Небольшая облачность+22°C57 %690 мм2.1 м/с5 %
    21:00Ясно и безоблачно+20°C60 %691 мм2.0 м/с5 %
Мы используем cookies
Соглашаюсь